sensor_id;sensor_type;location;lat;lon;timestamp;pressure;altitude;pressure_sealevel;temperature;humidity
25232;BME280;13176;51.140;6.290;2023-11-19T00:01:32;100245.44;;;14.39;100.00
25232;BME280;13176;51.140;6.290;2023-11-19T00:03:59;100276.09;;;14.84;100.00
25232;BME280;13176;51.140;6.290;2023-11-19T00:06:26;100268.50;;;14.77;100.00
25232;BME280;13176;51.140;6.290;2023-11-19T00:08:53;100286.22;;;14.72;100.00
25232;BME280;13176;51.140;6.290;2023-11-19T00:11:19;100262.53;;;14.94;100.00
25232;BME280;13176;51.140;6.290;2023-11-19T00:13:45;100260.22;;;14.87;100.00
25232;BME280;13176;51.140;6.290;2023-11-19T00:16:12;100249.25;;;14.99;100.00
25232;BME280;13176;51.140;6.290;2023-11-19T00:18:38;100187.00;;;14.57;100.00
25232;BME280;13176;51.140;6.290;2023-11-19T00:21:05;100262.53;;;15.17;100.00
25232;BME280;13176;51.140;6.290;2023-11-19T00:23:37;100282.59;;;15.41;100.00
25232;BME280;13176;51.140;6.290;2023-11-19T00:26:04;100247.03;;;14.88;100.00
25232;BME280;13176;51.140;6.290;2023-11-19T00:28:32;100242.78;;;15.07;100.00
25232;BME280;13176;51.140;6.290;2023-11-19T00:30:59;100217.53;;;14.59;100.00
25232;BME280;13176;51.140;6.290;2023-11-19T00:33:26;100248.06;;;14.84;100.00
25232;BME280;13176;51.140;6.290;2023-11-19T00:35:53;100122.53;;;14.27;100.00
25232;BME280;13176;51.140;6.290;2023-11-19T00:38:19;100177.09;;;14.42;100.00
25232;BME280;13176;51.140;6.290;2023-11-19T00:40:45;100234.41;;;14.75;100.00
25232;BME280;13176;51.140;6.290;2023-11-19T00:43:12;100245.06;;;14.93;100.00
25232;BME280;13176;51.140;6.290;2023-11-19T00:45:38;100175.72;;;14.32;100.00
25232;BME280;13176;51.140;6.290;2023-11-19T00:48:05;100245.38;;;14.86;100.00
25232;BME280;13176;51.140;6.290;2023-11-19T00:50:31;100261.94;;;14.88;100.00
25232;BME280;13176;51.140;6.290;2023-11-19T00:53:02;100269.84;;;15.09;100.00
25232;BME280;13176;51.140;6.290;2023-11-19T00:55:30;100203.66;;;14.79;100.00
25232;BME280;13176;51.140;6.290;2023-11-19T00:57:56;100254.69;;;14.72;100.00
25232;BME280;13176;51.140;6.290;2023-11-19T01:00:23;100247.63;;;14.74;100.00
25232;BME280;13176;51.140;6.290;2023-11-19T01:02:50;100154.03;;;14.50;100.00
25232;BME280;13176;51.140;6.290;2023-11-19T01:05:19;100179.56;;;14.68;100.00
25232;BME280;13176;51.140;6.290;2023-11-19T01:07:48;100254.66;;;15.17;100.00
25232;BME280;13176;51.140;6.290;2023-11-19T01:10:15;100151.44;;;14.48;100.00
25232;BME280;13176;51.140;6.290;2023-11-19T01:12:45;100260.41;;;15.48;100.00
25232;BME280;13176;51.140;6.290;2023-11-19T01:15:12;100274.84;;;15.38;100.00
25232;BME280;13176;51.140;6.290;2023-11-19T01:17:39;100267.03;;;15.37;100.00
25232;BME280;13176;51.140;6.290;2023-11-19T01:20:17;100234.66;;;15.13;100.00
25232;BME280;13176;51.140;6.290;2023-11-19T01:22:43;100237.75;;;15.01;100.00
25232;BME280;13176;51.140;6.290;2023-11-19T01:25:10;100237.53;;;15.07;100.00
25232;BME280;13176;51.140;6.290;2023-11-19T01:27:37;100213.00;;;14.85;100.00
25232;BME280;13176;51.140;6.290;2023-11-19T01:30:04;100277.38;;;15.18;100.00
25232;BME280;13176;51.140;6.290;2023-11-19T01:32:32;100217.84;;;15.17;100.00
25232;BME280;13176;51.140;6.290;2023-11-19T01:34:58;100247.78;;;15.13;100.00
25232;BME280;13176;51.140;6.290;2023-11-19T01:37:25;100155.63;;;14.54;100.00
25232;BME280;13176;51.140;6.290;2023-11-19T01:39:51;100264.72;;;15.29;100.00
25232;BME280;13176;51.140;6.290;2023-11-19T01:42:21;100219.44;;;15.21;100.00
25232;BME280;13176;51.140;6.290;2023-11-19T01:44:58;100224.31;;;14.87;100.00
25232;BME280;13176;51.140;6.290;2023-11-19T01:47:26;100242.25;;;15.42;100.00
25232;BME280;13176;51.140;6.290;2023-11-19T01:49:53;100233.97;;;15.08;100.00
25232;BME280;13176;51.140;6.290;2023-11-19T01:52:20;100234.50;;;15.39;100.00
25232;BME280;13176;51.140;6.290;2023-11-19T01:54:48;100242.69;;;15.73;100.00
25232;BME280;13176;51.140;6.290;2023-11-19T01:57:15;100237.19;;;15.38;100.00
25232;BME280;13176;51.140;6.290;2023-11-19T01:59:43;100226.91;;;15.53;100.00
25232;BME280;13176;51.140;6.290;2023-11-19T02:02:10;100157.84;;;14.85;100.00
25232;BME280;13176;51.140;6.290;2023-11-19T02:04:39;100229.31;;;15.58;100.00
25232;BME280;13176;51.140;6.290;2023-11-19T02:07:07;100140.53;;;15.01;100.00
25232;BME280;13176;51.140;6.290;2023-11-19T02:09:35;100239.72;;;15.61;100.00
25232;BME280;13176;51.140;6.290;2023-11-19T02:12:01;100207.63;;;15.53;100.00
25232;BME280;13176;51.140;6.290;2023-11-19T02:14:28;100180.94;;;15.20;100.00
25232;BME280;13176;51.140;6.290;2023-11-19T02:16:54;100139.03;;;15.16;100.00
25232;BME280;13176;51.140;6.290;2023-11-19T02:19:21;100065.00;;;14.86;100.00
25232;BME280;13176;51.140;6.290;2023-11-19T02:21:48;100180.81;;;15.23;100.00
25232;BME280;13176;51.140;6.290;2023-11-19T02:24:16;100205.06;;;15.51;100.00
25232;BME280;13176;51.140;6.290;2023-11-19T02:27:02;100209.06;;;15.40;100.00
25232;BME280;13176;51.140;6.290;2023-11-19T02:29:33;100198.09;;;15.50;100.00
25232;BME280;13176;51.140;6.290;2023-11-19T02:32:01;100200.72;;;15.50;100.00
25232;BME280;13176;51.140;6.290;2023-11-19T02:34:28;100116.50;;;15.10;100.00
25232;BME280;13176;51.140;6.290;2023-11-19T02:36:55;100203.22;;;15.73;100.00
25232;BME280;13176;51.140;6.290;2023-11-19T02:39:21;100165.22;;;15.40;100.00
25232;BME280;13176;51.140;6.290;2023-11-19T02:41:48;100148.16;;;15.07;100.00
25232;BME280;13176;51.140;6.290;2023-11-19T02:44:17;100130.69;;;15.06;100.00
25232;BME280;13176;51.140;6.290;2023-11-19T02:46:43;100176.00;;;15.54;100.00
25232;BME280;13176;51.140;6.290;2023-11-19T02:49:10;100189.41;;;15.48;100.00
25232;BME280;13176;51.140;6.290;2023-11-19T02:51:36;100200.47;;;15.56;100.00
25232;BME280;13176;51.140;6.290;2023-11-19T02:54:03;100108.66;;;15.30;100.00
25232;BME280;13176;51.140;6.290;2023-11-19T02:56:30;100151.03;;;15.64;100.00
25232;BME280;13176;51.140;6.290;2023-11-19T02:59:00;100183.94;;;15.53;100.00
25232;BME280;13176;51.140;6.290;2023-11-19T03:01:34;100128.16;;;15.26;100.00
25232;BME280;13176;51.140;6.290;2023-11-19T03:04:02;100168.91;;;15.56;100.00
25232;BME280;13176;51.140;6.290;2023-11-19T03:06:30;100188.09;;;15.78;100.00
25232;BME280;13176;51.140;6.290;2023-11-19T03:08:56;100163.41;;;15.62;100.00
25232;BME280;13176;51.140;6.290;2023-11-19T03:11:23;100096.69;;;15.23;100.00
25232;BME280;13176;51.140;6.290;2023-11-19T03:13:50;100190.22;;;15.90;100.00
25232;BME280;13176;51.140;6.290;2023-11-19T03:16:20;100146.13;;;15.35;100.00
25232;BME280;13176;51.140;6.290;2023-11-19T03:18:47;100196.50;;;16.06;100.00
25232;BME280;13176;51.140;6.290;2023-11-19T03:21:14;100145.41;;;15.52;100.00
25232;BME280;13176;51.140;6.290;2023-11-19T03:23:40;100141.00;;;15.32;100.00
25232;BME280;13176;51.140;6.290;2023-11-19T03:26:07;100196.06;;;15.97;100.00
25232;BME280;13176;51.140;6.290;2023-11-19T03:28:34;100209.03;;;15.61;100.00
25232;BME280;13176;51.140;6.290;2023-11-19T03:31:01;100073.66;;;14.88;100.00
25232;BME280;13176;51.140;6.290;2023-11-19T03:33:27;100146.69;;;15.00;100.00
25232;BME280;13176;51.140;6.290;2023-11-19T03:35:56;100197.97;;;15.73;100.00
25232;BME280;13176;51.140;6.290;2023-11-19T03:38:23;100139.72;;;15.42;100.00
25232;BME280;13176;51.140;6.290;2023-11-19T03:40:50;100142.34;;;15.42;100.00
25232;BME280;13176;51.140;6.290;2023-11-19T03:43:17;100187.31;;;15.56;100.00
25232;BME280;13176;51.140;6.290;2023-11-19T03:45:45;100092.84;;;14.69;100.00
25232;BME280;13176;51.140;6.290;2023-11-19T03:48:13;100070.84;;;14.93;99.38
25232;BME280;13176;51.140;6.290;2023-11-19T03:50:40;100183.59;;;15.19;100.00
25232;BME280;13176;51.140;6.290;2023-11-19T03:53:06;100207.81;;;15.48;100.00
25232;BME280;13176;51.140;6.290;2023-11-19T03:55:33;100203.91;;;15.58;100.00
25232;BME280;13176;51.140;6.290;2023-11-19T03:57:59;100205.41;;;15.64;100.00
25232;BME280;13176;51.140;6.290;2023-11-19T04:00:26;100168.81;;;15.16;100.00
25232;BME280;13176;51.140;6.290;2023-11-19T04:02:54;100078.16;;;14.85;100.00
25232;BME280;13176;51.140;6.290;2023-11-19T04:05:20;100205.38;;;15.22;100.00
25232;BME280;13176;51.140;6.290;2023-11-19T04:07:48;100200.72;;;15.50;100.00
25232;BME280;13176;51.140;6.290;2023-11-19T04:10:15;100192.28;;;15.21;100.00
25232;BME280;13176;51.140;6.290;2023-11-19T04:12:43;100059.13;;;14.16;100.00
25232;BME280;13176;51.140;6.290;2023-11-19T04:15:11;100157.88;;;15.05;100.00
25232;BME280;13176;51.140;6.290;2023-11-19T04:17:37;100101.03;;;14.62;100.00
25232;BME280;13176;51.140;6.290;2023-11-19T04:20:05;100191.94;;;15.08;100.00
25232;BME280;13176;51.140;6.290;2023-11-19T04:22:32;100104.50;;;14.62;100.00
25232;BME280;13176;51.140;6.290;2023-11-19T04:24:58;100233.78;;;15.36;100.00
25232;BME280;13176;51.140;6.290;2023-11-19T04:27:25;100205.97;;;15.07;100.00
25232;BME280;13176;51.140;6.290;2023-11-19T04:29:51;100199.91;;;15.28;100.00
25232;BME280;13176;51.140;6.290;2023-11-19T04:32:18;100211.25;;;15.29;100.00
25232;BME280;13176;51.140;6.290;2023-11-19T04:34:45;100220.38;;;15.42;100.00
25232;BME280;13176;51.140;6.290;2023-11-19T04:37:11;100250.22;;;15.41;100.00
25232;BME280;13176;51.140;6.290;2023-11-19T04:39:39;100204.75;;;14.94;100.00
25232;BME280;13176;51.140;6.290;2023-11-19T04:42:06;100226.66;;;15.16;100.00
25232;BME280;13176;51.140;6.290;2023-11-19T04:44:33;100206.59;;;15.14;100.00
25232;BME280;13176;51.140;6.290;2023-11-19T04:46:59;100127.53;;;14.56;100.00
25232;BME280;13176;51.140;6.290;2023-11-19T04:49:26;100186.91;;;15.02;100.00
25232;BME280;13176;51.140;6.290;2023-11-19T04:51:54;100136.78;;;14.43;100.00
25232;BME280;13176;51.140;6.290;2023-11-19T04:54:20;100224.00;;;14.95;100.00
25232;BME280;13176;51.140;6.290;2023-11-19T04:56:46;100237.66;;;15.26;100.00
25232;BME280;13176;51.140;6.290;2023-11-19T04:59:13;100226.28;;;15.04;100.00
25232;BME280;13176;51.140;6.290;2023-11-19T05:01:40;100221.47;;;14.71;100.00
25232;BME280;13176;51.140;6.290;2023-11-19T05:04:07;100224.34;;;15.09;100.00
25232;BME280;13176;51.140;6.290;2023-11-19T05:06:34;100220.41;;;14.97;100.00
25232;BME280;13176;51.140;6.290;2023-11-19T05:09:01;100210.97;;;14.71;100.00
25232;BME280;13176;51.140;6.290;2023-11-19T05:11:32;100238.34;;;15.31;99.53
25232;BME280;13176;51.140;6.290;2023-11-19T05:13:59;100168.09;;;14.47;100.00
25232;BME280;13176;51.140;6.290;2023-11-19T05:16:25;100228.22;;;14.78;100.00
25232;BME280;13176;51.140;6.290;2023-11-19T05:18:52;100198.50;;;14.76;100.00
25232;BME280;13176;51.140;6.290;2023-11-19T05:21:19;100197.47;;;14.80;100.00
25232;BME280;13176;51.140;6.290;2023-11-19T05:23:45;100258.88;;;14.98;99.17
25232;BME280;13176;51.140;6.290;2023-11-19T05:26:21;100257.31;;;15.16;98.45
25232;BME280;13176;51.140;6.290;2023-11-19T05:28:48;100231.03;;;14.94;98.59
25232;BME280;13176;51.140;6.290;2023-11-19T05:31:16;100248.50;;;14.95;99.46
25232;BME280;13176;51.140;6.290;2023-11-19T05:33:43;100200.34;;;14.74;98.95
25232;BME280;13176;51.140;6.290;2023-11-19T05:36:10;100208.25;;;14.51;100.00
25232;BME280;13176;51.140;6.290;2023-11-19T05:38:37;100133.31;;;14.19;99.13
25232;BME280;13176;51.140;6.290;2023-11-19T05:41:04;100228.22;;;14.78;98.73
25232;BME280;13176;51.140;6.290;2023-11-19T05:43:31;100221.28;;;14.54;98.99
25232;BME280;13176;51.140;6.290;2023-11-19T05:45:58;100277.59;;;14.91;98.43
25232;BME280;13176;51.140;6.290;2023-11-19T05:48:26;100254.69;;;14.72;98.54
25232;BME280;13176;51.140;6.290;2023-11-19T05:50:53;100232.72;;;14.95;96.47
25232;BME280;13176;51.140;6.290;2023-11-19T05:53:20;100274.06;;;15.13;95.90
25232;BME280;13176;51.140;6.290;2023-11-19T05:55:46;100215.75;;;14.82;95.48
25232;BME280;13176;51.140;6.290;2023-11-19T05:58:24;100290.53;;;14.95;95.79
25232;BME280;13176;51.140;6.290;2023-11-19T06:00:52;100279.25;;;14.71;97.03
25232;BME280;13176;51.140;6.290;2023-11-19T06:03:19;100248.50;;;14.74;94.98
25232;BME280;13176;51.140;6.290;2023-11-19T06:05:46;100251.16;;;14.73;95.02
25232;BME280;13176;51.140;6.290;2023-11-19T06:08:12;100210.91;;;14.49;94.65
25232;BME280;13176;51.140;6.290;2023-11-19T06:10:40;100289.50;;;14.99;93.71
25232;BME280;13176;51.140;6.290;2023-11-19T06:13:07;100269.00;;;14.86;94.41
25232;BME280;13176;51.140;6.290;2023-11-19T06:15:36;100273.53;;;14.82;93.94
25232;BME280;13176;51.140;6.290;2023-11-19T06:18:02;100283.13;;;14.61;94.85
25232;BME280;13176;51.140;6.290;2023-11-19T06:20:30;100292.13;;;14.99;93.33
25232;BME280;13176;51.140;6.290;2023-11-19T06:23:09;100208.91;;;14.33;93.28
25232;BME280;13176;51.140;6.290;2023-11-19T06:25:35;100266.44;;;14.62;93.48
25232;BME280;13176;51.140;6.290;2023-11-19T06:28:02;100263.28;;;14.54;93.93
25232;BME280;13176;51.140;6.290;2023-11-19T06:30:29;100240.31;;;14.36;94.02
25232;BME280;13176;51.140;6.290;2023-11-19T06:32:57;100203.34;;;14.42;92.52
25232;BME280;13176;51.140;6.290;2023-11-19T06:35:23;100276.16;;;14.60;92.98
25232;BME280;13176;51.140;6.290;2023-11-19T06:37:50;100251.97;;;14.52;92.45
25232;BME280;13176;51.140;6.290;2023-11-19T06:40:16;100230.50;;;14.18;92.56
25232;BME280;13176;51.140;6.290;2023-11-19T06:42:43;100209.59;;;14.15;92.61
25232;BME280;13176;51.140;6.290;2023-11-19T06:45:09;100266.69;;;14.56;92.16
25232;BME280;13176;51.140;6.290;2023-11-19T06:47:36;100248.59;;;14.48;92.29
25232;BME280;13176;51.140;6.290;2023-11-19T06:50:02;100249.97;;;14.35;93.07
25232;BME280;13176;51.140;6.290;2023-11-19T06:52:31;100250.56;;;14.19;93.05
25232;BME280;13176;51.140;6.290;2023-11-19T06:54:58;100253.31;;;14.16;93.69
25232;BME280;13176;51.140;6.290;2023-11-19T06:57:27;100205.28;;;13.88;92.86
25232;BME280;13176;51.140;6.290;2023-11-19T06:59:55;100208.91;;;14.08;91.86
25232;BME280;13176;51.140;6.290;2023-11-19T07:02:22;100208.06;;;14.08;92.04
25232;BME280;13176;51.140;6.290;2023-11-19T07:04:52;100224.88;;;14.27;90.87
25232;BME280;13176;51.140;6.290;2023-11-19T07:07:18;100224.44;;;14.16;90.78
25232;BME280;13176;51.140;6.290;2023-11-19T07:09:46;100206.28;;;13.84;90.92
25232;BME280;13176;51.140;6.290;2023-11-19T07:12:12;100232.31;;;13.90;90.51
25232;BME280;13176;51.140;6.290;2023-11-19T07:14:40;100305.38;;;14.51;89.95
25232;BME280;13176;51.140;6.290;2023-11-19T07:17:08;100278.25;;;14.27;90.62
25232;BME280;13176;51.140;6.290;2023-11-19T07:19:37;100297.03;;;14.63;89.04
25232;BME280;13176;51.140;6.290;2023-11-19T07:22:05;100305.28;;;14.77;88.94
25232;BME280;13176;51.140;6.290;2023-11-19T07:24:33;100286.66;;;14.60;89.30
25232;BME280;13176;51.140;6.290;2023-11-19T07:26:59;100298.50;;;14.71;89.79
25232;BME280;13176;51.140;6.290;2023-11-19T07:29:26;100250.91;;;14.33;89.74
25232;BME280;13176;51.140;6.290;2023-11-19T07:31:55;100278.78;;;14.37;90.52
25232;BME280;13176;51.140;6.290;2023-11-19T07:34:24;100291.19;;;14.32;90.87
25232;BME280;13176;51.140;6.290;2023-11-19T07:36:50;100237.53;;;13.91;91.45
25232;BME280;13176;51.140;6.290;2023-11-19T07:39:17;100252.72;;;14.06;91.64
25232;BME280;13176;51.140;6.290;2023-11-19T07:41:44;100318.63;;;14.48;91.87
25232;BME280;13176;51.140;6.290;2023-11-19T07:44:10;100299.66;;;14.40;91.85
25232;BME280;13176;51.140;6.290;2023-11-19T07:46:37;100199.19;;;13.63;92.61
25232;BME280;13176;51.140;6.290;2023-11-19T07:49:03;100263.78;;;13.90;92.86
25232;BME280;13176;51.140;6.290;2023-11-19T07:51:30;100321.28;;;14.46;91.79
25232;BME280;13176;51.140;6.290;2023-11-19T07:53:56;100302.13;;;14.20;92.77
25232;BME280;13176;51.140;6.290;2023-11-19T07:56:23;100283.66;;;13.97;92.62
25232;BME280;13176;51.140;6.290;2023-11-19T07:58:49;100331.06;;;14.43;92.88
25232;BME280;13176;51.140;6.290;2023-11-19T08:01:16;100307.88;;;14.05;93.92
25232;BME280;13176;51.140;6.290;2023-11-19T08:03:42;100321.88;;;14.30;93.13
25232;BME280;13176;51.140;6.290;2023-11-19T08:06:24;100321.56;;;14.39;91.18
25232;BME280;13176;51.140;6.290;2023-11-19T08:08:51;100334.50;;;14.45;92.35
25232;BME280;13176;51.140;6.290;2023-11-19T08:11:18;100344.97;;;14.45;93.03
25232;BME280;13176;51.140;6.290;2023-11-19T08:13:46;100266.00;;;14.02;92.34
25232;BME280;13176;51.140;6.290;2023-11-19T08:16:12;100313.28;;;14.51;91.81
25232;BME280;13176;51.140;6.290;2023-11-19T08:18:43;100354.09;;;14.35;92.06
25232;BME280;13176;51.140;6.290;2023-11-19T08:21:10;100312.81;;;14.63;90.07
25232;BME280;13176;51.140;6.290;2023-11-19T08:23:36;100320.22;;;14.52;90.13
25232;BME280;13176;51.140;6.290;2023-11-19T08:26:05;100345.19;;;14.63;90.75
25232;BME280;13176;51.140;6.290;2023-11-19T08:28:32;100146.25;;;13.52;89.45
25232;BME280;13176;51.140;6.290;2023-11-19T08:31:00;100188.63;;;13.89;89.30
25232;BME280;13176;51.140;6.290;2023-11-19T08:33:27;100302.47;;;14.35;90.28
25232;BME280;13176;51.140;6.290;2023-11-19T08:35:54;100327.84;;;14.82;88.64
25232;BME280;13176;51.140;6.290;2023-11-19T08:38:20;100310.44;;;14.80;87.76
25232;BME280;13176;51.140;6.290;2023-11-19T08:40:49;100327.09;;;14.56;88.39
25232;BME280;13176;51.140;6.290;2023-11-19T08:43:16;100213.66;;;14.23;86.88
25232;BME280;13176;51.140;6.290;2023-11-19T08:45:43;100342.75;;;14.82;87.40
25232;BME280;13176;51.140;6.290;2023-11-19T08:48:10;100307.97;;;14.28;88.78
25232;BME280;13176;51.140;6.290;2023-11-19T08:50:36;100365.44;;;14.60;88.65
25232;BME280;13176;51.140;6.290;2023-11-19T08:53:03;100380.03;;;14.68;88.00
25232;BME280;13176;51.140;6.290;2023-11-19T08:55:32;100336.13;;;14.94;86.82
25232;BME280;13176;51.140;6.290;2023-11-19T08:57:59;100261.41;;;14.33;86.93
25232;BME280;13176;51.140;6.290;2023-11-19T09:00:25;100336.38;;;14.88;85.99
25232;BME280;13176;51.140;6.290;2023-11-19T09:02:52;100225.25;;;14.18;86.23
25232;BME280;13176;51.140;6.290;2023-11-19T09:05:19;100311.56;;;14.50;87.02
25232;BME280;13176;51.140;6.290;2023-11-19T09:07:45;100331.72;;;14.95;85.73
25232;BME280;13176;51.140;6.290;2023-11-19T09:10:12;100321.41;;;14.90;86.19
25232;BME280;13176;51.140;6.290;2023-11-19T09:12:38;100224.56;;;14.36;85.65
25232;BME280;13176;51.140;6.290;2023-11-19T09:15:05;100306.19;;;14.76;85.83
25232;BME280;13176;51.140;6.290;2023-11-19T09:17:32;100345.34;;;15.06;85.10
25232;BME280;13176;51.140;6.290;2023-11-19T09:19:59;100342.78;;;15.27;84.31
25232;BME280;13176;51.140;6.290;2023-11-19T09:22:25;100348.34;;;14.73;85.41
25232;BME280;13176;51.140;6.290;2023-11-19T09:24:52;100317.59;;;15.20;82.59
25232;BME280;13176;51.140;6.290;2023-11-19T09:27:18;100184.81;;;14.22;83.44
25232;BME280;13176;51.140;6.290;2023-11-19T09:29:45;100349.09;;;14.99;84.21
25232;BME280;13176;51.140;6.290;2023-11-19T09:32:12;100288.22;;;14.88;82.47
25232;BME280;13176;51.140;6.290;2023-11-19T09:34:39;100318.41;;;14.99;82.88
25232;BME280;13176;51.140;6.290;2023-11-19T09:37:06;100335.22;;;15.18;82.72
25232;BME280;13176;51.140;6.290;2023-11-19T09:39:47;100368.34;;;15.22;83.25
25232;BME280;13176;51.140;6.290;2023-11-19T09:42:13;100333.06;;;15.29;81.74
25232;BME280;13176;51.140;6.290;2023-11-19T09:44:42;100344.81;;;15.42;82.38
25232;BME280;13176;51.140;6.290;2023-11-19T09:47:10;100343.06;;;15.64;81.63
25232;BME280;13176;51.140;6.290;2023-11-19T09:49:37;100283.59;;;15.16;82.04
25232;BME280;13176;51.140;6.290;2023-11-19T09:52:04;100182.88;;;14.27;83.85
25232;BME280;13176;51.140;6.290;2023-11-19T09:54:31;100222.63;;;14.41;83.01
25232;BME280;13176;51.140;6.290;2023-11-19T09:56:59;100357.03;;;15.65;81.72
25232;BME280;13176;51.140;6.290;2023-11-19T09:59:30;100204.22;;;14.64;81.53
25232;BME280;13176;51.140;6.290;2023-11-19T10:01:57;100360.00;;;15.79;80.93
25232;BME280;13176;51.140;6.290;2023-11-19T10:04:23;100305.00;;;15.51;80.87
25232;BME280;13176;51.140;6.290;2023-11-19T10:06:51;100299.53;;;15.56;79.89
25232;BME280;13176;51.140;6.290;2023-11-19T10:09:18;100243.34;;;14.71;81.70
25232;BME280;13176;51.140;6.290;2023-11-19T10:11:45;100349.03;;;15.68;80.29
25232;BME280;13176;51.140;6.290;2023-11-19T10:14:14;100166.66;;;14.62;79.58
25232;BME280;13176;51.140;6.290;2023-11-19T10:16:41;100243.25;;;14.95;79.48
25232;BME280;13176;51.140;6.290;2023-11-19T10:19:12;100360.97;;;15.76;80.30
25232;BME280;13176;51.140;6.290;2023-11-19T10:21:45;100312.56;;;15.37;80.41
25232;BME280;13176;51.140;6.290;2023-11-19T10:24:12;100260.03;;;15.14;80.40
25232;BME280;13176;51.140;6.290;2023-11-19T10:26:56;100301.25;;;15.78;78.67
25232;BME280;13176;51.140;6.290;2023-11-19T10:29:23;100315.19;;;15.80;78.81
25232;BME280;13176;51.140;6.290;2023-11-19T10:31:57;100281.28;;;15.94;77.79
25232;BME280;13176;51.140;6.290;2023-11-19T10:34:43;100294.25;;;15.77;77.89
25232;BME280;13176;51.140;6.290;2023-11-19T10:37:27;100309.81;;;15.83;76.78
25232;BME280;13176;51.140;6.290;2023-11-19T10:39:55;100356.81;;;15.92;77.78
25232;BME280;13176;51.140;6.290;2023-11-19T10:42:21;100314.13;;;15.64;77.41
25232;BME280;13176;51.140;6.290;2023-11-19T10:44:48;100199.13;;;15.03;77.27
25232;BME280;13176;51.140;6.290;2023-11-19T10:47:18;100320.56;;;15.34;78.57
25232;BME280;13176;51.140;6.290;2023-11-19T10:49:46;100337.59;;;15.47;77.26
25232;BME280;13176;51.140;6.290;2023-11-19T10:52:17;100366.28;;;15.96;76.91
25232;BME280;13176;51.140;6.290;2023-11-19T10:54:44;100321.47;;;15.56;78.15
25232;BME280;13176;51.140;6.290;2023-11-19T10:57:20;100227.63;;;15.35;77.27
25232;BME280;13176;51.140;6.290;2023-11-19T10:59:47;100306.88;;;16.10;76.73
25232;BME280;13176;51.140;6.290;2023-11-19T11:02:19;100334.34;;;16.65;74.57
25232;BME280;13176;51.140;6.290;2023-11-19T11:04:49;100335.91;;;16.29;75.39
25232;BME280;13176;51.140;6.290;2023-11-19T11:07:21;100203.78;;;15.61;75.27
25232;BME280;13176;51.140;6.290;2023-11-19T11:10:01;100214.69;;;15.92;75.02
25232;BME280;13176;51.140;6.290;2023-11-19T11:12:31;100282.16;;;16.73;73.52
25232;BME280;13176;51.140;6.290;2023-11-19T11:15:00;100141.41;;;15.43;75.04
25232;BME280;13176;51.140;6.290;2023-11-19T11:17:28;100296.09;;;16.36;75.53
25232;BME280;13176;51.140;6.290;2023-11-19T11:19:57;100315.81;;;16.26;75.12
25232;BME280;13176;51.140;6.290;2023-11-19T11:22:23;100230.22;;;15.98;73.36
25232;BME280;13176;51.140;6.290;2023-11-19T11:25:23;100278.31;;;16.80;71.25
25232;BME280;13176;51.140;6.290;2023-11-19T11:28:05;100332.84;;;16.78;71.98
25232;BME280;13176;51.140;6.290;2023-11-19T11:31:06;100309.50;;;16.32;71.43
25232;BME280;13176;51.140;6.290;2023-11-19T11:33:44;100339.50;;;16.06;72.91
25232;BME280;13176;51.140;6.290;2023-11-19T11:36:24;100316.44;;;15.72;75.65
25232;BME280;13176;51.140;6.290;2023-11-19T11:38:52;100298.22;;;15.87;74.18
25232;BME280;13176;51.140;6.290;2023-11-19T11:41:21;100326.81;;;15.96;74.79
25232;BME280;13176;51.140;6.290;2023-11-19T11:43:54;100272.38;;;15.77;74.02
25232;BME280;13176;51.140;6.290;2023-11-19T11:49:01;100207.44;;;15.77;72.85
25232;BME280;13176;51.140;6.290;2023-11-19T11:54:25;100253.13;;;15.96;73.99
25232;BME280;13176;51.140;6.290;2023-11-19T11:57:02;100318.69;;;16.62;72.88
25232;BME280;13176;51.140;6.290;2023-11-19T12:02:09;100283.00;;;15.95;75.16
25232;BME280;13176;51.140;6.290;2023-11-19T12:04:36;100294.56;;;16.11;74.85
25232;BME280;13176;51.140;6.290;2023-11-19T12:07:16;100309.84;;;16.23;75.55
25232;BME280;13176;51.140;6.290;2023-11-19T12:09:48;100241.31;;;15.65;76.56
25232;BME280;13176;51.140;6.290;2023-11-19T12:12:22;100322.34;;;16.18;75.65
25232;BME280;13176;51.140;6.290;2023-11-19T12:20:01;100252.91;;;14.95;87.52
25232;BME280;13176;51.140;6.290;2023-11-19T12:22:27;100242.88;;;15.04;88.69
25232;BME280;13176;51.140;6.290;2023-11-19T12:24:54;100290.25;;;15.47;88.60
25232;BME280;13176;51.140;6.290;2023-11-19T12:27:22;100146.28;;;14.47;89.39
25232;BME280;13176;51.140;6.290;2023-11-19T12:29:49;100270.00;;;15.49;88.45
25232;BME280;13176;51.140;6.290;2023-11-19T12:32:16;100229.22;;;15.39;87.16
25232;BME280;13176;51.140;6.290;2023-11-19T12:34:42;100245.59;;;15.24;86.07
25232;BME280;13176;51.140;6.290;2023-11-19T12:37:10;100271.50;;;15.76;85.39
25232;BME280;13176;51.140;6.290;2023-11-19T12:39:37;100270.66;;;15.76;85.15
25232;BME280;13176;51.140;6.290;2023-11-19T12:42:03;100212.31;;;14.81;87.44
25232;BME280;13176;51.140;6.290;2023-11-19T12:44:30;100243.97;;;15.43;85.86
25232;BME280;13176;51.140;6.290;2023-11-19T12:47:04;100160.28;;;14.90;85.31
25232;BME280;13176;51.140;6.290;2023-11-19T12:49:31;100144.94;;;15.22;83.52
25232;BME280;13176;51.140;6.290;2023-11-19T12:52:00;100254.69;;;16.00;82.33
25232;BME280;13176;51.140;6.290;2023-11-19T12:54:35;100259.97;;;16.00;82.07
25232;BME280;13176;51.140;6.290;2023-11-19T12:57:02;100278.38;;;16.20;81.68
25232;BME280;13176;51.140;6.290;2023-11-19T12:59:29;100252.38;;;16.12;80.94
25232;BME280;13176;51.140;6.290;2023-11-19T13:01:58;100259.53;;;15.69;82.24
25232;BME280;13176;51.140;6.290;2023-11-19T13:04:29;100076.22;;;14.69;82.44